Austin Bergstrom International Airport
KAUS : rendu visible

Aérodrome :











RETROUVEZ-NOUS SUR...

 
LOGIN :

S'inscrire | Disclaimer

   EN    FR    IT 

 









Légende :    VFR   VFR Marginal   IFR   IFR Intensif   IFR Très Intensif
Visi : 
Plafond : 
>= 8 km
>= 3000ft
5 à 8 km
1000 à 3000 ft
1500m à 5 km
500 à 1000 ft
800 à 1500m
200 à 500 ft
< 800m
< 200 ft
Symboles :   Orages  Brouillard  Fortes neiges  Fortes précipitations  Vent > 20 kt






- Altitude de l'aérodrome : 542 ft
- Code IATA : AUS


KAUS - Austin Bergstrom International

DERNIER METAR :
  • 271653Z 23009G17KT 10SM CLR 12/M04 A3043 RMK AO2 SLP308 T01171044

METARs EXPIRÉS :
  • 271553Z 19008G15KT 10SM CLR 10/M03 A3044 RMK AO2 SLP314 T01001033

TAF KAUS
Valide du 27 à 18h jusqu'au 29 à 00h UTC


271742Z 2718/2824 22010G20KT P6SM SKC
FM280000 19006KT P6SM SKC
FM281500 30005KT P6SM SKC



MET'MAP, la Météo Aéronautique d'un coup d'oeil ! - Copyright ORBIFLY Décembre 2007 - Disclaimer

ORBIFLY MET'MAP TEAM :

Programmation & Développement : Alexandra Zaïnal
Sur une idée originale de : Baudouin d'Aumeries
Assistance à la programmation : Marc-Olivier Méhu
Soutien technique & logistique : Manuel Goepfert

Contact : metmap@orbifly.com




SOURCES & CREDITS :

   NOAA       Earth
Advisory